createdAt,value
2018-07-05T00:00:26.918Z,25.16
2018-07-05T00:03:07.691Z,25.14
2018-07-05T00:05:54.247Z,25.15
2018-07-05T00:08:40.957Z,25.09
2018-07-05T00:11:27.391Z,25.12
2018-07-05T00:14:14.034Z,25.14
2018-07-05T00:17:00.126Z,25.15
2018-07-05T00:19:46.480Z,25.15
2018-07-05T00:22:33.174Z,25.13
2018-07-05T00:25:19.606Z,25.09
2018-07-05T00:28:06.161Z,25.12
2018-07-05T00:30:52.816Z,25.05
2018-07-05T00:33:39.496Z,25.02
2018-07-05T00:36:27.281Z,24.94
2018-07-05T00:39:13.948Z,24.85
2018-07-05T00:42:00.783Z,24.81
2018-07-05T00:44:47.450Z,24.79
2018-07-05T00:47:34.179Z,24.76
2018-07-05T00:50:21.044Z,24.76
2018-07-05T00:53:07.714Z,24.74
2018-07-05T00:55:53.880Z,24.72
2018-07-05T00:58:40.425Z,24.65
2018-07-05T01:01:27.056Z,24.62
2018-07-05T01:04:13.488Z,24.57
2018-07-05T01:07:00.116Z,24.49
2018-07-05T01:09:46.385Z,24.46
2018-07-05T01:12:33.341Z,24.44
2018-07-05T01:15:20.172Z,24.35
2018-07-05T01:18:00.518Z,24.28
2018-07-05T01:20:47.156Z,24.29
2018-07-05T01:23:33.759Z,24.29
2018-07-05T01:26:20.420Z,24.23
2018-07-05T01:29:07.100Z,24.19
2018-07-05T01:31:53.685Z,24.21
2018-07-05T01:34:40.479Z,24.15
2018-07-05T01:37:27.118Z,24.17
2018-07-05T01:40:13.828Z,24.13
2018-07-05T01:43:00.609Z,24.16
2018-07-05T01:45:47.050Z,24.16
2018-07-05T01:48:33.735Z,24.18
2018-07-05T01:51:20.381Z,24.15
2018-07-05T01:54:07.106Z,24.10
2018-07-05T01:56:54.043Z,24.10
2018-07-05T01:59:40.765Z,23.99
2018-07-05T02:02:27.461Z,23.96
2018-07-05T02:05:13.877Z,24.01
2018-07-05T02:08:00.522Z,24.01
2018-07-05T02:10:47.096Z,24.03
2018-07-05T02:13:33.665Z,23.95
2018-07-05T02:16:20.440Z,23.83
2018-07-05T02:19:07.081Z,23.88
2018-07-05T02:21:53.731Z,23.80
2018-07-05T02:24:40.070Z,23.75
2018-07-05T02:27:26.466Z,23.71
2018-07-05T02:30:12.827Z,23.67
2018-07-05T02:32:59.160Z,23.68
2018-07-05T02:35:45.811Z,23.67
2018-07-05T02:38:32.612Z,23.70
2018-07-05T02:41:19.344Z,23.67
2018-07-05T02:44:06.129Z,23.56
2018-07-05T02:46:52.922Z,23.57
2018-07-05T02:49:39.622Z,23.57
2018-07-05T02:52:26.570Z,23.61
2018-07-05T02:55:13.392Z,23.55
2018-07-05T02:57:59.596Z,23.52
2018-07-05T03:00:46.685Z,23.39
2018-07-05T03:03:33.466Z,23.37
2018-07-05T03:06:19.951Z,23.34
2018-07-05T03:09:06.767Z,23.35
2018-07-05T03:11:53.481Z,23.40
2018-07-05T03:14:40.371Z,23.40
2018-07-05T03:17:27.214Z,23.37
2018-07-05T03:20:14.117Z,23.33
2018-07-05T03:23:00.896Z,23.34
2018-07-05T03:25:47.936Z,23.21
2018-07-05T03:28:34.662Z,23.10
2018-07-05T03:31:21.381Z,23.13
2018-07-05T03:34:07.980Z,23.12
2018-07-05T03:36:55.013Z,23.15
2018-07-05T03:39:41.500Z,23.21
2018-07-05T03:42:28.425Z,23.27
2018-07-05T03:45:15.084Z,23.27
2018-07-05T03:48:01.679Z,23.33
2018-07-05T03:50:47.781Z,23.37
2018-07-05T03:53:34.325Z,23.41
2018-07-05T03:56:20.915Z,23.43
2018-07-05T03:59:07.715Z,23.39
2018-07-05T04:01:54.253Z,23.40
2018-07-05T04:04:40.759Z,23.38
2018-07-05T04:07:27.411Z,23.33
2018-07-05T04:10:14.270Z,23.26
2018-07-05T04:13:00.740Z,23.24
2018-07-05T04:15:47.470Z,23.25
2018-07-05T04:18:33.761Z,23.20
2018-07-05T04:21:20.117Z,23.27
2018-07-05T04:24:07.024Z,23.34
2018-07-05T04:26:53.505Z,23.38
2018-07-05T04:29:40.229Z,23.36
2018-07-05T04:32:26.607Z,23.44
2018-07-05T04:35:13.419Z,23.50
2018-07-05T04:37:59.896Z,23.47
2018-07-05T04:40:46.646Z,23.42
2018-07-05T04:43:33.066Z,23.44
2018-07-05T04:46:19.712Z,23.55
2018-07-05T04:49:06.380Z,23.79
2018-07-05T04:51:52.985Z,24.03
2018-07-05T04:54:39.587Z,24.31
2018-07-05T04:57:26.107Z,24.56
2018-07-05T05:00:12.692Z,24.73
2018-07-05T05:02:59.296Z,24.89
2018-07-05T05:05:45.890Z,25.02
2018-07-05T05:08:32.795Z,25.14
2018-07-05T05:11:19.614Z,25.23
2018-07-05T05:14:06.137Z,25.20
2018-07-05T05:16:52.877Z,25.16
2018-07-05T05:19:39.441Z,25.10
2018-07-05T05:22:26.176Z,25.17
2018-07-05T05:25:12.956Z,25.22
2018-07-05T05:27:59.581Z,25.33
2018-07-05T05:30:45.822Z,25.33
2018-07-05T05:33:32.581Z,25.38
2018-07-05T05:36:18.986Z,25.45
2018-07-05T05:39:06.136Z,25.46
2018-07-05T05:41:46.629Z,25.54
2018-07-05T05:44:33.136Z,25.48
2018-07-05T05:47:19.561Z,25.35
2018-07-05T05:50:06.380Z,25.28
2018-07-05T05:52:52.951Z,25.27
2018-07-05T05:55:39.265Z,25.30
2018-07-05T05:58:25.760Z,25.41
2018-07-05T06:01:12.225Z,25.50
2018-07-05T06:03:58.776Z,25.53
2018-07-05T06:06:45.382Z,25.61
2018-07-05T06:09:32.027Z,25.54
2018-07-05T06:12:18.621Z,25.39
2018-07-05T06:15:05.682Z,25.20
2018-07-05T06:17:52.590Z,25.06
2018-07-05T06:20:39.120Z,24.78
2018-07-05T06:23:25.676Z,24.59
2018-07-05T06:26:12.477Z,24.44
2018-07-05T06:28:59.450Z,24.35
2018-07-05T06:31:46.248Z,24.25
2018-07-05T06:34:32.475Z,24.08
2018-07-05T06:37:19.067Z,23.84
2018-07-05T06:40:05.355Z,23.28
2018-07-05T06:42:51.808Z,22.63
2018-07-05T06:45:38.630Z,22.36
2018-07-05T06:48:25.381Z,22.49
2018-07-05T06:51:12.846Z,22.33
2018-07-05T06:53:59.526Z,22.44
2018-07-05T06:56:46.448Z,22.15
2018-07-05T06:59:32.956Z,21.77
2018-07-05T07:02:19.865Z,22.28
2018-07-05T07:05:06.569Z,22.44
2018-07-05T07:07:53.190Z,23.32
2018-07-05T07:10:39.637Z,23.71
2018-07-05T07:13:26.108Z,23.82
2018-07-05T07:16:12.711Z,23.39
2018-07-05T07:18:59.415Z,22.84
2018-07-05T07:21:46.302Z,23.12
2018-07-05T07:24:33.075Z,23.24
2018-07-05T07:27:19.702Z,23.21
2018-07-05T07:30:06.404Z,23.38
2018-07-05T07:32:53.251Z,23.37
2018-07-05T07:35:39.931Z,23.31
2018-07-05T07:38:26.435Z,23.25
2018-07-05T07:41:13.200Z,23.07
2018-07-05T07:43:41.079Z,22.94
2018-07-05T07:46:09.004Z,23.00
2018-07-05T07:48:37.008Z,23.04
2018-07-05T07:51:04.859Z,22.99
2018-07-05T07:53:33.038Z,22.86
2018-07-05T07:56:01.638Z,22.84
2018-07-05T07:58:29.670Z,22.92
2018-07-05T08:00:57.580Z,23.11
2018-07-05T08:03:25.500Z,23.25
2018-07-05T08:05:53.411Z,23.36
2018-07-05T08:08:21.440Z,23.49
2018-07-05T08:10:49.489Z,23.57
2018-07-05T08:13:17.452Z,23.68
2018-07-05T08:15:45.473Z,23.81
2018-07-05T08:18:13.522Z,23.91
2018-07-05T08:20:41.506Z,23.88
2018-07-05T08:23:09.477Z,23.91
2018-07-05T08:25:37.912Z,23.99
2018-07-05T08:28:05.925Z,24.01
2018-07-05T08:30:33.911Z,24.04
2018-07-05T08:33:02.002Z,24.10
2018-07-05T08:35:30.112Z,24.16
2018-07-05T08:37:58.013Z,24.29
2018-07-05T08:40:26.550Z,24.40
2018-07-05T08:42:54.388Z,24.49
2018-07-05T08:45:22.297Z,24.48
2018-07-05T08:47:50.344Z,24.55
2018-07-05T08:50:18.197Z,24.57
2018-07-05T08:52:46.082Z,24.59
2018-07-05T08:55:14.112Z,24.61
2018-07-05T08:57:42.051Z,24.64
2018-07-05T09:00:10.115Z,24.61
2018-07-05T09:02:38.047Z,24.55
2018-07-05T09:05:06.039Z,24.54
2018-07-05T09:07:34.011Z,24.65
2018-07-05T09:10:01.910Z,24.72
2018-07-05T09:12:29.922Z,24.92
2018-07-05T09:14:57.798Z,25.00
2018-07-05T09:17:25.717Z,24.86
2018-07-05T09:19:53.743Z,24.80
2018-07-05T09:22:21.792Z,24.84
2018-07-05T09:24:49.662Z,24.87
2018-07-05T09:27:17.663Z,25.02
2018-07-05T09:29:46.008Z,25.06
2018-07-05T09:32:13.953Z,24.91
2018-07-05T09:34:42.134Z,24.87
2018-07-05T09:37:15.557Z,25.03
2018-07-05T09:39:43.653Z,25.05
2018-07-05T09:42:11.710Z,25.24
2018-07-05T09:44:39.658Z,25.50
2018-07-05T09:47:07.906Z,25.47
2018-07-05T09:49:35.830Z,25.47
2018-07-05T09:52:04.004Z,25.59
2018-07-05T09:54:31.935Z,25.71
2018-07-05T09:57:00.244Z,25.59
2018-07-05T09:59:28.057Z,25.76
2018-07-05T10:01:55.956Z,25.83
2018-07-05T10:04:24.036Z,25.81
2018-07-05T10:06:52.153Z,26.05
2018-07-05T10:09:20.067Z,26.12
2018-07-05T10:11:47.937Z,26.40
2018-07-05T10:14:15.913Z,26.58
2018-07-05T10:16:43.869Z,26.76
2018-07-05T10:19:11.889Z,26.81
2018-07-05T10:21:40.099Z,26.87
2018-07-05T10:24:08.154Z,26.88
2018-07-05T10:26:36.143Z,26.75
2018-07-05T10:29:23.033Z,26.68
2018-07-05T10:32:09.718Z,26.63
2018-07-05T10:34:37.598Z,26.40
2018-07-05T10:37:05.451Z,26.49
2018-07-05T10:39:34.203Z,26.62
2018-07-05T10:42:20.979Z,26.72
2018-07-05T10:45:02.063Z,26.53
2018-07-05T10:47:48.926Z,26.77
2018-07-05T10:50:35.491Z,26.91
2018-07-05T10:53:23.087Z,26.88
2018-07-05T10:56:09.832Z,27.10
2018-07-05T10:58:56.046Z,27.15
2018-07-05T11:01:42.791Z,27.27
2018-07-05T11:04:29.574Z,27.31
2018-07-05T11:07:16.243Z,27.42
2018-07-05T11:10:03.185Z,27.01
2018-07-05T11:12:49.585Z,26.87
2018-07-05T11:15:36.749Z,26.97
2018-07-05T11:18:23.773Z,27.21
2018-07-05T11:21:10.594Z,27.19
2018-07-05T11:23:51.249Z,27.27
2018-07-05T11:26:37.943Z,27.46
2018-07-05T11:29:24.502Z,27.53
2018-07-05T11:32:12.182Z,27.47
2018-07-05T11:34:59.167Z,27.32
2018-07-05T11:37:46.893Z,27.31
2018-07-05T11:40:33.306Z,27.39
2018-07-05T11:43:20.054Z,27.35
2018-07-05T11:46:00.564Z,27.09
2018-07-05T11:48:47.277Z,27.03
2018-07-05T11:51:34.074Z,27.11
2018-07-05T11:54:20.590Z,27.12
2018-07-05T11:57:07.302Z,27.12
2018-07-05T11:59:54.095Z,27.35
2018-07-05T12:02:40.786Z,27.46
2018-07-05T12:05:27.589Z,27.53
2018-07-05T12:08:13.808Z,27.48
2018-07-05T12:11:00.035Z,27.55
2018-07-05T12:13:46.417Z,27.49
2018-07-05T12:16:32.748Z,27.38
2018-07-05T12:19:19.059Z,27.39
2018-07-05T12:22:05.646Z,27.48
2018-07-05T12:24:52.383Z,27.44
2018-07-05T12:27:39.233Z,27.52
2018-07-05T12:30:25.878Z,27.69
2018-07-05T12:33:12.681Z,27.72
2018-07-05T12:36:00.547Z,27.86
2018-07-05T12:38:46.982Z,28.04
2018-07-05T12:41:27.493Z,27.79
2018-07-05T12:44:14.273Z,27.85
2018-07-05T12:47:00.852Z,28.06
2018-07-05T12:49:47.453Z,28.14
2018-07-05T12:52:33.960Z,28.13
2018-07-05T12:55:20.437Z,28.30
2018-07-05T12:58:07.085Z,28.32
2018-07-05T13:00:53.865Z,28.30
2018-07-05T13:03:40.639Z,28.64
2018-07-05T13:06:27.244Z,28.97
2018-07-05T13:09:14.766Z,29.26
2018-07-05T13:12:01.337Z,29.78
2018-07-05T13:14:47.958Z,30.05
2018-07-05T13:17:28.813Z,30.23
2018-07-05T13:20:15.384Z,30.28
2018-07-05T13:23:02.274Z,30.05
2018-07-05T13:25:49.000Z,30.18
2018-07-05T13:28:36.113Z,30.23
2018-07-05T13:31:22.708Z,30.13
2018-07-05T13:34:09.369Z,29.91
2018-07-05T13:36:56.077Z,29.88
2018-07-05T13:39:43.117Z,29.93
2018-07-05T13:42:29.823Z,29.96
2018-07-05T13:45:16.606Z,30.05
2018-07-05T13:48:03.084Z,29.67
2018-07-05T13:50:49.958Z,29.43
2018-07-05T13:53:36.609Z,29.24
2018-07-05T13:56:23.372Z,29.30
2018-07-05T13:59:09.692Z,29.12
2018-07-05T14:01:56.483Z,29.16
2018-07-05T14:04:42.749Z,29.26
2018-07-05T14:07:29.537Z,29.43
2018-07-05T14:10:16.496Z,29.38
2018-07-05T14:13:03.412Z,29.05
2018-07-05T14:15:50.363Z,28.85
2018-07-05T14:18:37.204Z,28.80
2018-07-05T14:21:24.472Z,28.66
2018-07-05T14:24:11.526Z,28.58
2018-07-05T14:26:58.224Z,28.47
2018-07-05T14:29:44.952Z,28.38
2018-07-05T14:32:31.756Z,28.25
2018-07-05T14:35:18.301Z,28.13
2018-07-05T14:38:05.124Z,28.11
2018-07-05T14:40:51.928Z,28.11
2018-07-05T14:43:38.785Z,28.11
2018-07-05T14:46:19.555Z,28.09
2018-07-05T14:49:06.237Z,28.14
2018-07-05T14:51:53.084Z,28.13
2018-07-05T14:54:39.884Z,28.10
2018-07-05T14:57:26.664Z,28.15
2018-07-05T15:00:13.362Z,28.25
2018-07-05T15:02:59.695Z,28.21
2018-07-05T15:05:46.883Z,28.21
2018-07-05T15:08:33.380Z,28.16
2018-07-05T15:11:20.212Z,28.14
2018-07-05T15:14:07.036Z,28.21
2018-07-05T15:16:53.997Z,28.23
2018-07-05T15:19:42.578Z,28.24
2018-07-05T15:22:29.169Z,28.37
2018-07-05T15:25:15.524Z,28.39
2018-07-05T15:28:02.076Z,28.48
2018-07-05T15:30:48.311Z,28.58
2018-07-05T15:33:34.977Z,28.68
2018-07-05T15:36:21.745Z,28.60
2018-07-05T15:39:08.106Z,28.55
2018-07-05T15:41:56.045Z,28.52
2018-07-05T15:44:42.744Z,28.49
2018-07-05T15:47:29.500Z,28.35
2018-07-05T15:50:16.352Z,28.30
2018-07-05T15:53:03.190Z,28.14
2018-07-05T15:55:49.838Z,28.13
2018-07-05T15:58:36.714Z,28.06
2018-07-05T16:01:23.344Z,27.99
2018-07-05T16:04:10.403Z,27.89
2018-07-05T16:06:56.538Z,27.96
2018-07-05T16:09:43.788Z,27.95
2018-07-05T16:12:30.437Z,28.00
2018-07-05T16:15:17.251Z,28.14
2018-07-05T16:18:04.008Z,28.21
2018-07-05T16:20:50.807Z,28.48
2018-07-05T16:23:37.074Z,29.18
2018-07-05T16:26:23.757Z,30.09
2018-07-05T16:29:10.305Z,30.52
2018-07-05T16:31:57.349Z,32.08
2018-07-05T16:34:43.824Z,33.02
2018-07-05T16:37:30.625Z,33.67
2018-07-05T16:40:17.348Z,33.14
2018-07-05T16:43:04.089Z,32.46
2018-07-05T16:45:50.770Z,33.12
2018-07-05T16:48:37.581Z,34.04
2018-07-05T16:51:24.323Z,35.04
2018-07-05T16:54:10.801Z,35.46
2018-07-05T16:56:57.054Z,35.46
2018-07-05T16:59:43.844Z,36.14
2018-07-05T17:02:30.658Z,36.47
2018-07-05T17:05:17.204Z,35.74
2018-07-05T17:08:04.091Z,34.47
2018-07-05T17:10:50.879Z,33.73
2018-07-05T17:13:37.608Z,33.64
2018-07-05T17:16:24.321Z,33.38
2018-07-05T17:19:11.128Z,33.00
2018-07-05T17:21:57.648Z,32.20
2018-07-05T17:24:44.413Z,31.18
2018-07-05T17:27:30.955Z,30.69
2018-07-05T17:30:17.588Z,31.55
2018-07-05T17:33:04.139Z,32.64
2018-07-05T17:35:50.708Z,32.65
2018-07-05T17:38:37.776Z,32.89
2018-07-05T17:41:24.549Z,33.82
2018-07-05T17:44:11.343Z,34.69
2018-07-05T17:46:58.039Z,35.36
2018-07-05T17:49:44.690Z,35.86
2018-07-05T17:52:31.149Z,35.88
2018-07-05T17:55:17.648Z,36.17
2018-07-05T17:58:04.408Z,36.18
2018-07-05T18:00:52.218Z,36.13
2018-07-05T18:03:38.698Z,36.07
2018-07-05T18:06:25.352Z,35.33
2018-07-05T18:09:11.977Z,34.12
2018-07-05T18:11:58.571Z,32.68
2018-07-05T18:14:45.213Z,31.86
2018-07-05T18:17:31.999Z,30.69
2018-07-05T18:20:18.914Z,30.80
2018-07-05T18:23:05.590Z,31.44
2018-07-05T18:25:52.274Z,32.19
2018-07-05T18:28:39.217Z,32.76
2018-07-05T18:31:26.134Z,32.70
2018-07-05T18:34:12.942Z,32.40
2018-07-05T18:36:59.714Z,32.40
2018-07-05T18:39:46.378Z,31.48
2018-07-05T18:42:32.908Z,31.23
2018-07-05T18:45:19.464Z,30.77
2018-07-05T18:48:06.303Z,30.01
2018-07-05T18:50:52.928Z,29.28
2018-07-05T18:53:39.275Z,28.78
2018-07-05T18:56:25.880Z,28.35
2018-07-05T18:59:12.468Z,28.21
2018-07-05T19:01:58.959Z,28.03
2018-07-05T19:04:45.838Z,27.94
2018-07-05T19:07:32.804Z,27.95
2018-07-05T19:10:19.377Z,27.85
2018-07-05T19:13:06.082Z,27.66
2018-07-05T19:15:52.752Z,27.59
2018-07-05T19:18:33.356Z,27.57
2018-07-05T19:21:20.607Z,27.46
2018-07-05T19:24:07.513Z,27.38
2018-07-05T19:26:54.397Z,27.12
2018-07-05T19:29:40.903Z,26.82
2018-07-05T19:32:27.815Z,26.79
2018-07-05T19:35:14.353Z,26.73
2018-07-05T19:38:01.280Z,26.85
2018-07-05T19:40:47.924Z,26.85
2018-07-05T19:43:34.798Z,26.87
2018-07-05T19:46:15.590Z,26.88
2018-07-05T19:49:02.136Z,26.91
2018-07-05T19:51:48.957Z,26.89
2018-07-05T19:54:35.779Z,26.77
2018-07-05T19:57:22.691Z,26.73
2018-07-05T20:00:09.533Z,26.66
2018-07-05T20:02:56.500Z,26.63
2018-07-05T20:05:43.134Z,26.56
2018-07-05T20:08:30.054Z,26.60
2018-07-05T20:11:10.799Z,26.51
2018-07-05T20:13:57.368Z,26.44
2018-07-05T20:16:44.206Z,26.46
2018-07-05T20:19:30.871Z,26.38
2018-07-05T20:22:19.841Z,26.42
2018-07-05T20:25:06.898Z,26.43
2018-07-05T20:27:53.667Z,26.46
2018-07-05T20:30:40.377Z,26.33
2018-07-05T20:33:27.278Z,26.32
2018-07-05T20:36:13.700Z,26.22
2018-07-05T20:39:00.401Z,25.97
2018-07-05T20:41:47.175Z,25.87
2018-07-05T20:44:33.403Z,25.85
2018-07-05T20:47:20.026Z,25.86
2018-07-05T20:50:07.124Z,25.89
2018-07-05T20:52:53.628Z,25.78
2018-07-05T20:55:40.120Z,25.82
2018-07-05T20:58:26.878Z,25.96
2018-07-05T21:01:13.660Z,25.97
2018-07-05T21:04:00.473Z,25.95
2018-07-05T21:06:47.178Z,25.89
2018-07-05T21:09:34.081Z,25.96
2018-07-05T21:12:20.248Z,26.02
2018-07-05T21:15:07.103Z,25.95
2018-07-05T21:17:53.998Z,25.77
2018-07-05T21:20:40.175Z,25.54
2018-07-05T21:23:26.974Z,25.41
2018-07-05T21:26:13.517Z,25.32
2018-07-05T21:28:59.907Z,25.29
2018-07-05T21:31:46.413Z,25.10
2018-07-05T21:34:33.122Z,24.87
2018-07-05T21:37:19.795Z,24.80
2018-07-05T21:40:06.291Z,24.75
2018-07-05T21:42:52.923Z,24.70
2018-07-05T21:45:39.503Z,24.67
2018-07-05T21:48:26.004Z,24.70
2018-07-05T21:51:12.380Z,24.73
2018-07-05T21:53:59.117Z,24.64
2018-07-05T21:56:46.217Z,24.45
2018-07-05T21:59:33.067Z,24.39
2018-07-05T22:02:19.814Z,24.46
2018-07-05T22:05:10.513Z,24.50
2018-07-05T22:07:57.308Z,24.53
2018-07-05T22:10:44.140Z,24.50
2018-07-05T22:13:30.880Z,24.32
2018-07-05T22:16:17.515Z,24.31
2018-07-05T22:19:09.335Z,24.29
2018-07-05T22:22:00.748Z,24.21
2018-07-05T22:24:52.443Z,24.12
2018-07-05T22:27:44.462Z,24.12
2018-07-05T22:30:36.496Z,24.13
2018-07-05T22:33:22.717Z,24.16
2018-07-05T22:36:09.442Z,24.08
2018-07-05T22:38:56.173Z,24.08
2018-07-05T22:41:42.816Z,24.08
2018-07-05T22:44:29.403Z,24.09
2018-07-05T22:47:16.074Z,24.07
2018-07-05T22:50:03.124Z,24.09
2018-07-05T22:52:49.603Z,24.05
2018-07-05T22:55:35.853Z,23.97
2018-07-05T22:58:22.643Z,23.95
2018-07-05T23:01:09.356Z,23.93
2018-07-05T23:03:56.357Z,23.91
2018-07-05T23:06:42.860Z,23.91
2018-07-05T23:09:29.659Z,23.93
2018-07-05T23:12:15.872Z,23.88
2018-07-05T23:15:02.463Z,23.81
2018-07-05T23:17:49.264Z,23.66
2018-07-05T23:20:35.534Z,23.79
2018-07-05T23:23:21.937Z,23.71
2018-07-05T23:26:08.688Z,23.59
2018-07-05T23:28:55.352Z,23.50
2018-07-05T23:31:41.957Z,23.47
2018-07-05T23:34:28.860Z,23.48
2018-07-05T23:37:15.685Z,23.54
2018-07-05T23:40:02.335Z,23.59
2018-07-05T23:42:49.249Z,23.61
2018-07-05T23:45:35.964Z,23.54
2018-07-05T23:48:22.568Z,23.47
2018-07-05T23:51:09.439Z,23.33
2018-07-05T23:53:56.248Z,23.25
2018-07-05T23:56:42.900Z,23.20
2018-07-05T23:59:29.804Z,23.21
